sensor_id;sensor_type;location;lat;lon;timestamp;P1;durP1;ratioP1;P2;durP2;ratioP2
21128;SDS011;10722;51.910;8.352;2023-05-07T00:00:46;17.80;;;10.32;;
21128;SDS011;10722;51.910;8.352;2023-05-07T00:03:33;20.55;;;10.25;;
21128;SDS011;10722;51.910;8.352;2023-05-07T00:06:18;20.58;;;10.18;;
21128;SDS011;10722;51.910;8.352;2023-05-07T00:09:04;21.83;;;11.55;;
21128;SDS011;10722;51.910;8.352;2023-05-07T00:11:49;22.55;;;11.20;;
21128;SDS011;10722;51.910;8.352;2023-05-07T00:14:35;20.98;;;11.82;;
21128;SDS011;10722;51.910;8.352;2023-05-07T00:17:20;22.65;;;12.75;;
21128;SDS011;10722;51.910;8.352;2023-05-07T00:20:06;21.95;;;12.75;;
21128;SDS011;10722;51.910;8.352;2023-05-07T00:22:52;21.98;;;12.77;;
21128;SDS011;10722;51.910;8.352;2023-05-07T00:25:37;21.67;;;12.82;;
21128;SDS011;10722;51.910;8.352;2023-05-07T00:28:22;20.67;;;13.27;;
21128;SDS011;10722;51.910;8.352;2023-05-07T00:31:07;26.67;;;13.93;;
21128;SDS011;10722;51.910;8.352;2023-05-07T00:33:52;25.48;;;13.73;;
21128;SDS011;10722;51.910;8.352;2023-05-07T00:36:37;22.20;;;14.13;;
21128;SDS011;10722;51.910;8.352;2023-05-07T00:39:22;22.00;;;13.95;;
21128;SDS011;10722;51.910;8.352;2023-05-07T00:42:07;22.90;;;14.32;;
21128;SDS011;10722;51.910;8.352;2023-05-07T00:44:52;24.70;;;15.05;;
21128;SDS011;10722;51.910;8.352;2023-05-07T00:47:37;22.88;;;14.15;;
21128;SDS011;10722;51.910;8.352;2023-05-07T00:50:22;26.17;;;15.23;;
21128;SDS011;10722;51.910;8.352;2023-05-07T00:53:08;24.60;;;15.43;;
21128;SDS011;10722;51.910;8.352;2023-05-07T00:55:53;24.33;;;15.43;;
21128;SDS011;10722;51.910;8.352;2023-05-07T00:58:40;24.25;;;15.60;;
21128;SDS011;10722;51.910;8.352;2023-05-07T01:01:25;25.00;;;16.15;;
21128;SDS011;10722;51.910;8.352;2023-05-07T01:04:10;23.70;;;15.45;;
21128;SDS011;10722;51.910;8.352;2023-05-07T01:06:56;26.67;;;16.92;;
21128;SDS011;10722;51.910;8.352;2023-05-07T01:09:44;23.33;;;16.35;;
21128;SDS011;10722;51.910;8.352;2023-05-07T01:12:29;25.98;;;15.13;;
21128;SDS011;10722;51.910;8.352;2023-05-07T01:15:16;26.42;;;16.67;;
21128;SDS011;10722;51.910;8.352;2023-05-07T01:18:02;25.42;;;15.98;;
21128;SDS011;10722;51.910;8.352;2023-05-07T01:20:47;27.35;;;17.70;;
21128;SDS011;10722;51.910;8.352;2023-05-07T01:23:32;25.80;;;17.08;;
21128;SDS011;10722;51.910;8.352;2023-05-07T01:26:18;25.77;;;17.50;;
21128;SDS011;10722;51.910;8.352;2023-05-07T01:29:04;26.02;;;17.15;;
21128;SDS011;10722;51.910;8.352;2023-05-07T01:31:50;28.80;;;17.70;;
21128;SDS011;10722;51.910;8.352;2023-05-07T01:34:37;26.05;;;17.10;;
21128;SDS011;10722;51.910;8.352;2023-05-07T01:37:22;27.17;;;17.83;;
21128;SDS011;10722;51.910;8.352;2023-05-07T01:40:08;26.85;;;17.00;;
21128;SDS011;10722;51.910;8.352;2023-05-07T01:42:54;28.20;;;18.35;;
21128;SDS011;10722;51.910;8.352;2023-05-07T01:45:39;26.83;;;18.20;;
21128;SDS011;10722;51.910;8.352;2023-05-07T01:48:25;30.05;;;18.13;;
21128;SDS011;10722;51.910;8.352;2023-05-07T01:51:11;27.98;;;18.10;;
21128;SDS011;10722;51.910;8.352;2023-05-07T01:53:56;27.98;;;18.13;;
21128;SDS011;10722;51.910;8.352;2023-05-07T01:56:41;27.65;;;18.23;;
21128;SDS011;10722;51.910;8.352;2023-05-07T01:59:27;26.60;;;17.80;;
21128;SDS011;10722;51.910;8.352;2023-05-07T02:02:12;28.80;;;18.48;;
21128;SDS011;10722;51.910;8.352;2023-05-07T02:04:58;26.63;;;18.33;;
21128;SDS011;10722;51.910;8.352;2023-05-07T02:07:44;29.90;;;19.23;;
21128;SDS011;10722;51.910;8.352;2023-05-07T02:10:29;28.85;;;18.58;;
21128;SDS011;10722;51.910;8.352;2023-05-07T02:13:14;29.35;;;18.35;;
21128;SDS011;10722;51.910;8.352;2023-05-07T02:16:00;28.98;;;19.63;;
21128;SDS011;10722;51.910;8.352;2023-05-07T02:18:46;32.22;;;20.60;;
21128;SDS011;10722;51.910;8.352;2023-05-07T02:21:30;28.48;;;19.70;;
21128;SDS011;10722;51.910;8.352;2023-05-07T02:24:15;28.88;;;19.88;;
21128;SDS011;10722;51.910;8.352;2023-05-07T02:27:01;28.40;;;19.20;;
21128;SDS011;10722;51.910;8.352;2023-05-07T02:29:46;28.10;;;19.55;;
21128;SDS011;10722;51.910;8.352;2023-05-07T02:32:31;26.63;;;19.05;;
21128;SDS011;10722;51.910;8.352;2023-05-07T02:35:17;30.00;;;19.58;;
21128;SDS011;10722;51.910;8.352;2023-05-07T02:38:02;28.15;;;19.52;;
21128;SDS011;10722;51.910;8.352;2023-05-07T02:40:47;29.40;;;19.75;;
21128;SDS011;10722;51.910;8.352;2023-05-07T02:43:32;31.38;;;20.52;;
21128;SDS011;10722;51.910;8.352;2023-05-07T02:46:17;31.27;;;21.08;;
21128;SDS011;10722;51.910;8.352;2023-05-07T02:49:03;32.20;;;21.20;;
21128;SDS011;10722;51.910;8.352;2023-05-07T02:51:48;31.92;;;21.65;;
21128;SDS011;10722;51.910;8.352;2023-05-07T02:54:33;30.05;;;20.95;;
21128;SDS011;10722;51.910;8.352;2023-05-07T02:57:18;30.52;;;20.95;;
21128;SDS011;10722;51.910;8.352;2023-05-07T03:00:11;30.58;;;21.15;;
21128;SDS011;10722;51.910;8.352;2023-05-07T03:03:00;29.77;;;21.48;;
21128;SDS011;10722;51.910;8.352;2023-05-07T03:05:46;32.45;;;21.02;;
21128;SDS011;10722;51.910;8.352;2023-05-07T03:08:31;33.70;;;22.33;;
21128;SDS011;10722;51.910;8.352;2023-05-07T03:11:17;32.30;;;21.92;;
21128;SDS011;10722;51.910;8.352;2023-05-07T03:14:02;30.52;;;21.05;;
21128;SDS011;10722;51.910;8.352;2023-05-07T03:16:48;35.33;;;22.05;;
21128;SDS011;10722;51.910;8.352;2023-05-07T03:19:34;32.17;;;22.23;;
21128;SDS011;10722;51.910;8.352;2023-05-07T03:22:19;33.17;;;22.83;;
21128;SDS011;10722;51.910;8.352;2023-05-07T03:25:05;31.70;;;22.52;;
21128;SDS011;10722;51.910;8.352;2023-05-07T03:27:51;36.22;;;22.75;;
21128;SDS011;10722;51.910;8.352;2023-05-07T03:30:36;34.33;;;22.80;;
21128;SDS011;10722;51.910;8.352;2023-05-07T03:33:22;30.02;;;22.02;;
21128;SDS011;10722;51.910;8.352;2023-05-07T03:36:07;31.15;;;21.70;;
21128;SDS011;10722;51.910;8.352;2023-05-07T03:38:52;34.20;;;22.60;;
21128;SDS011;10722;51.910;8.352;2023-05-07T03:41:37;32.40;;;22.48;;
21128;SDS011;10722;51.910;8.352;2023-05-07T03:44:23;35.63;;;22.58;;
21128;SDS011;10722;51.910;8.352;2023-05-07T03:47:08;33.05;;;22.45;;
21128;SDS011;10722;51.910;8.352;2023-05-07T03:49:53;34.45;;;23.48;;
21128;SDS011;10722;51.910;8.352;2023-05-07T03:52:38;32.40;;;23.15;;
21128;SDS011;10722;51.910;8.352;2023-05-07T03:55:23;35.08;;;24.15;;
21128;SDS011;10722;51.910;8.352;2023-05-07T03:58:08;32.00;;;22.52;;
21128;SDS011;10722;51.910;8.352;2023-05-07T04:00:54;34.30;;;23.42;;
21128;SDS011;10722;51.910;8.352;2023-05-07T04:03:38;34.17;;;23.70;;
21128;SDS011;10722;51.910;8.352;2023-05-07T04:06:24;31.77;;;21.33;;
21128;SDS011;10722;51.910;8.352;2023-05-07T04:09:09;32.00;;;22.63;;
21128;SDS011;10722;51.910;8.352;2023-05-07T04:11:54;31.25;;;22.13;;
21128;SDS011;10722;51.910;8.352;2023-05-07T04:14:39;31.42;;;22.30;;
21128;SDS011;10722;51.910;8.352;2023-05-07T04:17:24;31.85;;;22.20;;
21128;SDS011;10722;51.910;8.352;2023-05-07T04:20:10;33.42;;;23.13;;
21128;SDS011;10722;51.910;8.352;2023-05-07T04:22:59;30.10;;;21.90;;
21128;SDS011;10722;51.910;8.352;2023-05-07T04:25:44;32.80;;;22.75;;
21128;SDS011;10722;51.910;8.352;2023-05-07T04:28:30;32.35;;;22.85;;
21128;SDS011;10722;51.910;8.352;2023-05-07T04:31:15;32.35;;;23.45;;
21128;SDS011;10722;51.910;8.352;2023-05-07T04:34:00;33.70;;;23.15;;
21128;SDS011;10722;51.910;8.352;2023-05-07T04:36:46;34.35;;;22.42;;
21128;SDS011;10722;51.910;8.352;2023-05-07T04:39:32;34.85;;;23.90;;
21128;SDS011;10722;51.910;8.352;2023-05-07T04:42:17;31.48;;;22.05;;
21128;SDS011;10722;51.910;8.352;2023-05-07T04:45:03;37.45;;;25.60;;
21128;SDS011;10722;51.910;8.352;2023-05-07T04:47:49;33.95;;;23.88;;
21128;SDS011;10722;51.910;8.352;2023-05-07T04:50:35;33.85;;;23.23;;
21128;SDS011;10722;51.910;8.352;2023-05-07T04:53:20;34.05;;;23.38;;
21128;SDS011;10722;51.910;8.352;2023-05-07T04:56:05;34.28;;;23.45;;
21128;SDS011;10722;51.910;8.352;2023-05-07T04:58:51;35.30;;;24.20;;
21128;SDS011;10722;51.910;8.352;2023-05-07T05:01:36;35.08;;;23.92;;
21128;SDS011;10722;51.910;8.352;2023-05-07T05:04:22;35.22;;;24.52;;
21128;SDS011;10722;51.910;8.352;2023-05-07T05:07:07;36.03;;;24.55;;
21128;SDS011;10722;51.910;8.352;2023-05-07T05:09:52;36.63;;;24.13;;
21128;SDS011;10722;51.910;8.352;2023-05-07T05:12:38;35.25;;;23.92;;
21128;SDS011;10722;51.910;8.352;2023-05-07T05:15:23;33.90;;;23.10;;
21128;SDS011;10722;51.910;8.352;2023-05-07T05:18:08;33.22;;;23.27;;
21128;SDS011;10722;51.910;8.352;2023-05-07T05:20:53;36.50;;;25.02;;
21128;SDS011;10722;51.910;8.352;2023-05-07T05:23:39;33.00;;;23.25;;
21128;SDS011;10722;51.910;8.352;2023-05-07T05:26:24;34.95;;;23.25;;
21128;SDS011;10722;51.910;8.352;2023-05-07T05:29:10;35.30;;;23.58;;
21128;SDS011;10722;51.910;8.352;2023-05-07T05:31:55;35.53;;;23.83;;
21128;SDS011;10722;51.910;8.352;2023-05-07T05:34:41;35.92;;;23.85;;
21128;SDS011;10722;51.910;8.352;2023-05-07T05:37:29;35.80;;;24.45;;
21128;SDS011;10722;51.910;8.352;2023-05-07T05:40:14;34.85;;;24.30;;
21128;SDS011;10722;51.910;8.352;2023-05-07T05:43:00;35.35;;;23.08;;
21128;SDS011;10722;51.910;8.352;2023-05-07T05:45:46;37.38;;;24.83;;
21128;SDS011;10722;51.910;8.352;2023-05-07T05:48:31;36.70;;;25.00;;
21128;SDS011;10722;51.910;8.352;2023-05-07T05:51:16;35.63;;;25.05;;
21128;SDS011;10722;51.910;8.352;2023-05-07T05:54:02;35.08;;;24.55;;
21128;SDS011;10722;51.910;8.352;2023-05-07T05:56:47;35.80;;;24.33;;
21128;SDS011;10722;51.910;8.352;2023-05-07T05:59:33;34.83;;;23.23;;
21128;SDS011;10722;51.910;8.352;2023-05-07T06:02:19;37.30;;;23.65;;
21128;SDS011;10722;51.910;8.352;2023-05-07T06:05:04;38.15;;;24.45;;
21128;SDS011;10722;51.910;8.352;2023-05-07T06:07:50;35.67;;;24.88;;
21128;SDS011;10722;51.910;8.352;2023-05-07T06:10:38;33.55;;;23.25;;
21128;SDS011;10722;51.910;8.352;2023-05-07T06:13:24;38.47;;;25.08;;
21128;SDS011;10722;51.910;8.352;2023-05-07T06:16:10;32.80;;;23.08;;
21128;SDS011;10722;51.910;8.352;2023-05-07T06:18:56;39.95;;;24.00;;
21128;SDS011;10722;51.910;8.352;2023-05-07T06:21:41;36.38;;;23.05;;
21128;SDS011;10722;51.910;8.352;2023-05-07T06:24:29;36.53;;;23.90;;
21128;SDS011;10722;51.910;8.352;2023-05-07T06:27:14;36.35;;;23.73;;
21128;SDS011;10722;51.910;8.352;2023-05-07T06:29:59;36.50;;;23.20;;
21128;SDS011;10722;51.910;8.352;2023-05-07T06:32:44;35.22;;;23.83;;
21128;SDS011;10722;51.910;8.352;2023-05-07T06:35:30;38.30;;;24.63;;
21128;SDS011;10722;51.910;8.352;2023-05-07T06:38:15;35.70;;;23.65;;
21128;SDS011;10722;51.910;8.352;2023-05-07T06:41:00;33.60;;;22.75;;
21128;SDS011;10722;51.910;8.352;2023-05-07T06:43:46;34.53;;;22.85;;
21128;SDS011;10722;51.910;8.352;2023-05-07T06:46:31;32.45;;;21.75;;
21128;SDS011;10722;51.910;8.352;2023-05-07T06:49:16;33.10;;;21.38;;
21128;SDS011;10722;51.910;8.352;2023-05-07T06:52:01;33.17;;;21.23;;
21128;SDS011;10722;51.910;8.352;2023-05-07T06:54:47;32.45;;;21.05;;
21128;SDS011;10722;51.910;8.352;2023-05-07T06:57:32;31.80;;;20.42;;
21128;SDS011;10722;51.910;8.352;2023-05-07T07:00:17;31.05;;;20.52;;
21128;SDS011;10722;51.910;8.352;2023-05-07T07:03:02;29.58;;;19.95;;
21128;SDS011;10722;51.910;8.352;2023-05-07T07:05:50;30.58;;;20.55;;
21128;SDS011;10722;51.910;8.352;2023-05-07T07:08:36;31.33;;;20.85;;
21128;SDS011;10722;51.910;8.352;2023-05-07T07:11:21;30.30;;;20.13;;
21128;SDS011;10722;51.910;8.352;2023-05-07T07:14:06;31.90;;;20.33;;
21128;SDS011;10722;51.910;8.352;2023-05-07T07:16:51;29.08;;;19.83;;
21128;SDS011;10722;51.910;8.352;2023-05-07T07:19:36;28.63;;;19.88;;
21128;SDS011;10722;51.910;8.352;2023-05-07T07:22:21;30.38;;;19.52;;
21128;SDS011;10722;51.910;8.352;2023-05-07T07:25:06;30.02;;;20.10;;
21128;SDS011;10722;51.910;8.352;2023-05-07T07:27:51;29.27;;;19.90;;
21128;SDS011;10722;51.910;8.352;2023-05-07T07:30:37;30.05;;;19.48;;
21128;SDS011;10722;51.910;8.352;2023-05-07T07:33:22;28.30;;;18.55;;
21128;SDS011;10722;51.910;8.352;2023-05-07T07:36:08;28.98;;;18.77;;
21128;SDS011;10722;51.910;8.352;2023-05-07T07:38:53;29.88;;;18.63;;
21128;SDS011;10722;51.910;8.352;2023-05-07T07:41:39;31.13;;;18.42;;
21128;SDS011;10722;51.910;8.352;2023-05-07T07:44:24;29.40;;;19.25;;
21128;SDS011;10722;51.910;8.352;2023-05-07T07:47:10;27.88;;;17.65;;
21128;SDS011;10722;51.910;8.352;2023-05-07T07:49:56;28.48;;;18.10;;
21128;SDS011;10722;51.910;8.352;2023-05-07T07:52:41;29.48;;;17.83;;
21128;SDS011;10722;51.910;8.352;2023-05-07T07:55:26;25.92;;;17.30;;
21128;SDS011;10722;51.910;8.352;2023-05-07T07:58:11;27.45;;;17.63;;
21128;SDS011;10722;51.910;8.352;2023-05-07T08:00:56;26.80;;;17.23;;
21128;SDS011;10722;51.910;8.352;2023-05-07T08:03:41;37.05;;;25.45;;
21128;SDS011;10722;51.910;8.352;2023-05-07T08:06:27;25.80;;;17.27;;
21128;SDS011;10722;51.910;8.352;2023-05-07T08:09:12;25.45;;;16.70;;
21128;SDS011;10722;51.910;8.352;2023-05-07T08:11:57;25.90;;;16.58;;
21128;SDS011;10722;51.910;8.352;2023-05-07T08:14:42;24.23;;;15.80;;
21128;SDS011;10722;51.910;8.352;2023-05-07T08:17:28;23.65;;;15.70;;
21128;SDS011;10722;51.910;8.352;2023-05-07T08:20:13;23.30;;;15.27;;
21128;SDS011;10722;51.910;8.352;2023-05-07T08:22:58;22.98;;;15.00;;
21128;SDS011;10722;51.910;8.352;2023-05-07T08:25:44;23.15;;;15.38;;
21128;SDS011;10722;51.910;8.352;2023-05-07T08:28:29;23.38;;;14.77;;
21128;SDS011;10722;51.910;8.352;2023-05-07T08:31:14;22.63;;;14.38;;
21128;SDS011;10722;51.910;8.352;2023-05-07T08:33:59;21.08;;;14.20;;
21128;SDS011;10722;51.910;8.352;2023-05-07T08:36:44;20.92;;;13.75;;
21128;SDS011;10722;51.910;8.352;2023-05-07T08:39:29;24.55;;;13.02;;
21128;SDS011;10722;51.910;8.352;2023-05-07T08:42:15;20.92;;;12.80;;
21128;SDS011;10722;51.910;8.352;2023-05-07T08:45:02;19.08;;;12.05;;
21128;SDS011;10722;51.910;8.352;2023-05-07T08:47:49;20.50;;;12.93;;
21128;SDS011;10722;51.910;8.352;2023-05-07T08:50:38;19.13;;;11.95;;
21128;SDS011;10722;51.910;8.352;2023-05-07T08:53:24;19.65;;;12.65;;
21128;SDS011;10722;51.910;8.352;2023-05-07T08:56:09;19.58;;;12.23;;
21128;SDS011;10722;51.910;8.352;2023-05-07T08:58:54;19.70;;;11.80;;
21128;SDS011;10722;51.910;8.352;2023-05-07T09:01:39;27.55;;;17.67;;
21128;SDS011;10722;51.910;8.352;2023-05-07T09:04:25;21.38;;;11.52;;
21128;SDS011;10722;51.910;8.352;2023-05-07T09:07:10;19.67;;;12.18;;
21128;SDS011;10722;51.910;8.352;2023-05-07T09:09:55;19.80;;;11.88;;
21128;SDS011;10722;51.910;8.352;2023-05-07T09:12:40;19.73;;;11.40;;
21128;SDS011;10722;51.910;8.352;2023-05-07T09:15:26;18.65;;;11.40;;
21128;SDS011;10722;51.910;8.352;2023-05-07T09:18:13;19.00;;;11.50;;
21128;SDS011;10722;51.910;8.352;2023-05-07T09:21:01;19.92;;;10.07;;
21128;SDS011;10722;51.910;8.352;2023-05-07T09:23:53;16.73;;;10.18;;
21128;SDS011;10722;51.910;8.352;2023-05-07T09:26:39;19.70;;;10.60;;
21128;SDS011;10722;51.910;8.352;2023-05-07T09:29:26;17.95;;;10.93;;
21128;SDS011;10722;51.910;8.352;2023-05-07T09:32:12;18.02;;;10.65;;
21128;SDS011;10722;51.910;8.352;2023-05-07T09:34:57;19.50;;;11.07;;
21128;SDS011;10722;51.910;8.352;2023-05-07T09:37:43;18.25;;;11.20;;
21128;SDS011;10722;51.910;8.352;2023-05-07T09:40:29;18.67;;;10.60;;
21128;SDS011;10722;51.910;8.352;2023-05-07T09:43:15;19.27;;;10.95;;
21128;SDS011;10722;51.910;8.352;2023-05-07T09:46:02;17.85;;;10.88;;
21128;SDS011;10722;51.910;8.352;2023-05-07T09:48:48;18.95;;;11.38;;
21128;SDS011;10722;51.910;8.352;2023-05-07T09:51:39;18.20;;;11.35;;
21128;SDS011;10722;51.910;8.352;2023-05-07T09:54:27;18.77;;;10.85;;
21128;SDS011;10722;51.910;8.352;2023-05-07T09:57:14;20.40;;;11.82;;
21128;SDS011;10722;51.910;8.352;2023-05-07T10:00:00;18.27;;;10.73;;
21128;SDS011;10722;51.910;8.352;2023-05-07T10:02:51;19.25;;;11.27;;
21128;SDS011;10722;51.910;8.352;2023-05-07T10:05:40;21.20;;;11.13;;
21128;SDS011;10722;51.910;8.352;2023-05-07T10:08:26;18.58;;;11.15;;
21128;SDS011;10722;51.910;8.352;2023-05-07T10:11:12;19.88;;;12.48;;
21128;SDS011;10722;51.910;8.352;2023-05-07T10:13:58;20.88;;;11.68;;
21128;SDS011;10722;51.910;8.352;2023-05-07T10:16:46;20.13;;;11.65;;
21128;SDS011;10722;51.910;8.352;2023-05-07T10:19:33;20.67;;;11.90;;
21128;SDS011;10722;51.910;8.352;2023-05-07T10:22:20;20.75;;;12.32;;
21128;SDS011;10722;51.910;8.352;2023-05-07T10:25:09;18.65;;;11.00;;
21128;SDS011;10722;51.910;8.352;2023-05-07T10:28:04;18.75;;;11.55;;
21128;SDS011;10722;51.910;8.352;2023-05-07T10:33:37;17.58;;;10.30;;
21128;SDS011;10722;51.910;8.352;2023-05-07T10:36:23;19.65;;;11.10;;
21128;SDS011;10722;51.910;8.352;2023-05-07T10:39:09;19.00;;;10.93;;
21128;SDS011;10722;51.910;8.352;2023-05-07T10:41:55;17.85;;;10.65;;
21128;SDS011;10722;51.910;8.352;2023-05-07T10:44:40;19.23;;;11.93;;
21128;SDS011;10722;51.910;8.352;2023-05-07T10:47:25;17.55;;;10.25;;
21128;SDS011;10722;51.910;8.352;2023-05-07T11:02:06;18.33;;;10.75;;
21128;SDS011;10722;51.910;8.352;2023-05-07T11:08:21;18.02;;;11.18;;
21128;SDS011;10722;51.910;8.352;2023-05-07T11:11:06;18.42;;;10.90;;
21128;SDS011;10722;51.910;8.352;2023-05-07T11:13:52;17.42;;;10.20;;
21128;SDS011;10722;51.910;8.352;2023-05-07T11:16:37;18.20;;;10.38;;
21128;SDS011;10722;51.910;8.352;2023-05-07T11:22:40;18.33;;;10.73;;
21128;SDS011;10722;51.910;8.352;2023-05-07T11:25:25;17.50;;;10.23;;
21128;SDS011;10722;51.910;8.352;2023-05-07T11:28:11;18.63;;;9.88;;
21128;SDS011;10722;51.910;8.352;2023-05-07T11:30:57;17.65;;;10.10;;
21128;SDS011;10722;51.910;8.352;2023-05-07T11:33:44;17.05;;;10.38;;
21128;SDS011;10722;51.910;8.352;2023-05-07T11:36:30;29.08;;;19.52;;
21128;SDS011;10722;51.910;8.352;2023-05-07T11:39:26;17.17;;;9.90;;
21128;SDS011;10722;51.910;8.352;2023-05-07T11:42:29;17.52;;;9.65;;
21128;SDS011;10722;51.910;8.352;2023-05-07T11:45:22;17.17;;;9.02;;
21128;SDS011;10722;51.910;8.352;2023-05-07T11:48:08;16.35;;;9.07;;
21128;SDS011;10722;51.910;8.352;2023-05-07T11:51:00;15.20;;;8.52;;
21128;SDS011;10722;51.910;8.352;2023-05-07T11:53:46;15.48;;;8.38;;
21128;SDS011;10722;51.910;8.352;2023-05-07T11:56:33;16.67;;;9.20;;
21128;SDS011;10722;51.910;8.352;2023-05-07T11:59:19;16.80;;;8.85;;
21128;SDS011;10722;51.910;8.352;2023-05-07T12:02:04;16.20;;;9.40;;
21128;SDS011;10722;51.910;8.352;2023-05-07T12:04:49;15.35;;;8.35;;
21128;SDS011;10722;51.910;8.352;2023-05-07T12:07:34;15.32;;;8.60;;
21128;SDS011;10722;51.910;8.352;2023-05-07T12:10:21;17.40;;;8.10;;
21128;SDS011;10722;51.910;8.352;2023-05-07T12:13:13;15.98;;;8.32;;
21128;SDS011;10722;51.910;8.352;2023-05-07T12:16:05;14.98;;;8.32;;
21128;SDS011;10722;51.910;8.352;2023-05-07T12:18:51;15.18;;;7.20;;
21128;SDS011;10722;51.910;8.352;2023-05-07T12:21:37;16.10;;;7.93;;
21128;SDS011;10722;51.910;8.352;2023-05-07T12:24:23;14.40;;;7.15;;
21128;SDS011;10722;51.910;8.352;2023-05-07T12:27:08;14.40;;;6.53;;
21128;SDS011;10722;51.910;8.352;2023-05-07T12:29:54;13.27;;;6.80;;
21128;SDS011;10722;51.910;8.352;2023-05-07T12:32:42;13.40;;;6.57;;
21128;SDS011;10722;51.910;8.352;2023-05-07T12:35:30;13.68;;;6.75;;
21128;SDS011;10722;51.910;8.352;2023-05-07T12:38:17;14.35;;;7.20;;
21128;SDS011;10722;51.910;8.352;2023-05-07T12:41:03;13.75;;;6.47;;
21128;SDS011;10722;51.910;8.352;2023-05-07T12:43:48;13.60;;;7.00;;
21128;SDS011;10722;51.910;8.352;2023-05-07T12:46:38;12.73;;;6.35;;
21128;SDS011;10722;51.910;8.352;2023-05-07T12:49:23;13.57;;;6.10;;
21128;SDS011;10722;51.910;8.352;2023-05-07T12:52:09;13.18;;;6.47;;
21128;SDS011;10722;51.910;8.352;2023-05-07T12:54:56;13.75;;;6.18;;
21128;SDS011;10722;51.910;8.352;2023-05-07T12:57:42;11.98;;;5.97;;
21128;SDS011;10722;51.910;8.352;2023-05-07T13:00:35;12.57;;;6.20;;
21128;SDS011;10722;51.910;8.352;2023-05-07T13:03:31;12.23;;;5.57;;
21128;SDS011;10722;51.910;8.352;2023-05-07T13:06:20;11.57;;;5.40;;
21128;SDS011;10722;51.910;8.352;2023-05-07T13:09:08;12.57;;;4.85;;
21128;SDS011;10722;51.910;8.352;2023-05-07T13:11:53;11.18;;;4.57;;
21128;SDS011;10722;51.910;8.352;2023-05-07T13:14:39;11.57;;;5.40;;
21128;SDS011;10722;51.910;8.352;2023-05-07T13:17:24;11.38;;;5.10;;
21128;SDS011;10722;51.910;8.352;2023-05-07T13:20:10;12.75;;;5.15;;
21128;SDS011;10722;51.910;8.352;2023-05-07T13:22:55;10.95;;;4.72;;
21128;SDS011;10722;51.910;8.352;2023-05-07T13:25:40;11.70;;;5.18;;
21128;SDS011;10722;51.910;8.352;2023-05-07T13:28:26;11.32;;;4.78;;
21128;SDS011;10722;51.910;8.352;2023-05-07T13:31:11;11.27;;;4.93;;
21128;SDS011;10722;51.910;8.352;2023-05-07T13:33:57;12.98;;;6.38;;
21128;SDS011;10722;51.910;8.352;2023-05-07T13:36:41;11.23;;;5.10;;
21128;SDS011;10722;51.910;8.352;2023-05-07T13:39:26;12.07;;;5.00;;
21128;SDS011;10722;51.910;8.352;2023-05-07T13:42:12;13.65;;;5.25;;
21128;SDS011;10722;51.910;8.352;2023-05-07T13:44:57;11.43;;;4.70;;
21128;SDS011;10722;51.910;8.352;2023-05-07T13:47:45;9.93;;;4.55;;
21128;SDS011;10722;51.910;8.352;2023-05-07T13:50:31;10.45;;;4.40;;
21128;SDS011;10722;51.910;8.352;2023-05-07T13:53:17;11.70;;;4.90;;
21128;SDS011;10722;51.910;8.352;2023-05-07T13:56:03;10.93;;;4.38;;
21128;SDS011;10722;51.910;8.352;2023-05-07T13:58:48;10.80;;;4.50;;
21128;SDS011;10722;51.910;8.352;2023-05-07T14:01:44;11.15;;;4.65;;
21128;SDS011;10722;51.910;8.352;2023-05-07T14:04:30;10.48;;;4.30;;
21128;SDS011;10722;51.910;8.352;2023-05-07T14:07:15;10.73;;;4.38;;
21128;SDS011;10722;51.910;8.352;2023-05-07T14:10:00;12.50;;;4.50;;
21128;SDS011;10722;51.910;8.352;2023-05-07T14:12:46;11.02;;;4.78;;
21128;SDS011;10722;51.910;8.352;2023-05-07T14:15:32;12.93;;;4.50;;
21128;SDS011;10722;51.910;8.352;2023-05-07T14:18:17;9.93;;;4.38;;
21128;SDS011;10722;51.910;8.352;2023-05-07T14:21:03;10.98;;;4.65;;
21128;SDS011;10722;51.910;8.352;2023-05-07T14:23:49;11.27;;;4.88;;
21128;SDS011;10722;51.910;8.352;2023-05-07T14:26:35;11.48;;;4.35;;
21128;SDS011;10722;51.910;8.352;2023-05-07T14:29:20;12.20;;;4.88;;
21128;SDS011;10722;51.910;8.352;2023-05-07T14:32:08;10.77;;;4.88;;
21128;SDS011;10722;51.910;8.352;2023-05-07T14:34:53;12.13;;;4.75;;
21128;SDS011;10722;51.910;8.352;2023-05-07T14:37:38;11.27;;;4.95;;
21128;SDS011;10722;51.910;8.352;2023-05-07T14:40:23;10.38;;;4.50;;
21128;SDS011;10722;51.910;8.352;2023-05-07T14:43:08;11.02;;;4.93;;
21128;SDS011;10722;51.910;8.352;2023-05-07T14:45:54;11.00;;;4.60;;
21128;SDS011;10722;51.910;8.352;2023-05-07T14:48:39;12.02;;;5.38;;
21128;SDS011;10722;51.910;8.352;2023-05-07T14:51:24;11.75;;;5.18;;
21128;SDS011;10722;51.910;8.352;2023-05-07T14:54:09;12.43;;;5.00;;
21128;SDS011;10722;51.910;8.352;2023-05-07T14:56:55;14.60;;;5.70;;
21128;SDS011;10722;51.910;8.352;2023-05-07T14:59:40;12.40;;;4.90;;
21128;SDS011;10722;51.910;8.352;2023-05-07T15:02:25;11.95;;;5.03;;
21128;SDS011;10722;51.910;8.352;2023-05-07T15:05:11;13.82;;;5.63;;
21128;SDS011;10722;51.910;8.352;2023-05-07T15:07:56;12.70;;;5.50;;
21128;SDS011;10722;51.910;8.352;2023-05-07T15:10:42;12.60;;;5.78;;
21128;SDS011;10722;51.910;8.352;2023-05-07T15:13:27;14.15;;;6.30;;
21128;SDS011;10722;51.910;8.352;2023-05-07T15:16:12;13.05;;;5.78;;
21128;SDS011;10722;51.910;8.352;2023-05-07T15:18:58;14.18;;;5.72;;
21128;SDS011;10722;51.910;8.352;2023-05-07T15:21:43;13.93;;;5.45;;
21128;SDS011;10722;51.910;8.352;2023-05-07T15:24:29;12.90;;;6.43;;
21128;SDS011;10722;51.910;8.352;2023-05-07T15:27:15;17.98;;;8.32;;
21128;SDS011;10722;51.910;8.352;2023-05-07T15:30:00;14.63;;;7.30;;
21128;SDS011;10722;51.910;8.352;2023-05-07T15:32:45;14.20;;;7.30;;
21128;SDS011;10722;51.910;8.352;2023-05-07T15:35:31;13.60;;;6.35;;
21128;SDS011;10722;51.910;8.352;2023-05-07T15:38:16;15.65;;;6.85;;
21128;SDS011;10722;51.910;8.352;2023-05-07T15:41:02;14.57;;;6.03;;
21128;SDS011;10722;51.910;8.352;2023-05-07T15:43:48;14.13;;;6.65;;
21128;SDS011;10722;51.910;8.352;2023-05-07T15:46:35;14.95;;;6.78;;
21128;SDS011;10722;51.910;8.352;2023-05-07T15:49:20;14.30;;;7.22;;
21128;SDS011;10722;51.910;8.352;2023-05-07T15:52:05;13.27;;;6.85;;
21128;SDS011;10722;51.910;8.352;2023-05-07T15:54:50;15.85;;;7.75;;
21128;SDS011;10722;51.910;8.352;2023-05-07T15:57:36;15.38;;;7.82;;
21128;SDS011;10722;51.910;8.352;2023-05-07T16:00:21;14.68;;;7.00;;
21128;SDS011;10722;51.910;8.352;2023-05-07T16:03:06;14.57;;;7.95;;
21128;SDS011;10722;51.910;8.352;2023-05-07T16:05:52;14.13;;;7.40;;
21128;SDS011;10722;51.910;8.352;2023-05-07T16:08:37;16.10;;;8.00;;
21128;SDS011;10722;51.910;8.352;2023-05-07T16:11:22;14.30;;;7.55;;
21128;SDS011;10722;51.910;8.352;2023-05-07T16:14:07;14.98;;;7.97;;
21128;SDS011;10722;51.910;8.352;2023-05-07T16:16:53;21.48;;;14.25;;
21128;SDS011;10722;51.910;8.352;2023-05-07T16:19:40;16.17;;;9.82;;
21128;SDS011;10722;51.910;8.352;2023-05-07T16:22:26;17.20;;;9.90;;
21128;SDS011;10722;51.910;8.352;2023-05-07T16:25:11;14.25;;;7.90;;
21128;SDS011;10722;51.910;8.352;2023-05-07T16:27:56;14.05;;;8.00;;
21128;SDS011;10722;51.910;8.352;2023-05-07T16:30:42;18.90;;;10.45;;
21128;SDS011;10722;51.910;8.352;2023-05-07T16:33:27;19.02;;;9.55;;
21128;SDS011;10722;51.910;8.352;2023-05-07T16:36:13;15.63;;;8.85;;